sensor_id;sensor_type;location;lat;lon;timestamp;pressure;altitude;pressure_sealevel;temperature;humidity
76108;BME280;64834;52.516;10.528;2023-11-18T00:01:04;101700.31;;;1.01;100.00
76108;BME280;64834;52.516;10.528;2023-11-18T00:03:30;101704.69;;;1.02;100.00
76108;BME280;64834;52.516;10.528;2023-11-18T00:05:55;101702.53;;;0.83;100.00
76108;BME280;64834;52.516;10.528;2023-11-18T00:08:20;101703.91;;;0.72;100.00
76108;BME280;64834;52.516;10.528;2023-11-18T00:10:46;101700.19;;;0.77;100.00
76108;BME280;64834;52.516;10.528;2023-11-18T00:13:12;101699.00;;;0.66;100.00
76108;BME280;64834;52.516;10.528;2023-11-18T00:15:37;101702.31;;;0.65;100.00
76108;BME280;64834;52.516;10.528;2023-11-18T00:18:03;101713.44;;;0.57;100.00
76108;BME280;64834;52.516;10.528;2023-11-18T00:20:28;101709.44;;;0.52;100.00
76108;BME280;64834;52.516;10.528;2023-11-18T00:22:56;101709.06;;;0.49;100.00
76108;BME280;64834;52.516;10.528;2023-11-18T00:25:21;101713.44;;;0.57;100.00
76108;BME280;64834;52.516;10.528;2023-11-18T00:27:46;101718.47;;;0.48;100.00
76108;BME280;64834;52.516;10.528;2023-11-18T00:30:12;101715.72;;;0.47;100.00
76108;BME280;64834;52.516;10.528;2023-11-18T00:32:38;101722.75;;;0.41;100.00
76108;BME280;64834;52.516;10.528;2023-11-18T00:35:04;101723.34;;;0.38;100.00
76108;BME280;64834;52.516;10.528;2023-11-18T00:37:30;101721.16;;;0.34;100.00
76108;BME280;64834;52.516;10.528;2023-11-18T00:39:56;101725.25;;;0.32;100.00
76108;BME280;64834;52.516;10.528;2023-11-18T00:42:21;101730.38;;;0.32;100.00
76108;BME280;64834;52.516;10.528;2023-11-18T00:44:46;101738.28;;;0.34;100.00
76108;BME280;64834;52.516;10.528;2023-11-18T00:47:12;101733.66;;;0.38;100.00
76108;BME280;64834;52.516;10.528;2023-11-18T00:49:38;101741.09;;;0.51;100.00
76108;BME280;64834;52.516;10.528;2023-11-18T00:52:03;101726.72;;;0.53;100.00
76108;BME280;64834;52.516;10.528;2023-11-18T00:54:29;101734.97;;;0.58;100.00
76108;BME280;64834;52.516;10.528;2023-11-18T00:56:54;101739.88;;;0.63;100.00
76108;BME280;64834;52.516;10.528;2023-11-18T00:59:19;101730.66;;;0.65;100.00
76108;BME280;64834;52.516;10.528;2023-11-18T01:01:45;101744.38;;;0.73;100.00
76108;BME280;64834;52.516;10.528;2023-11-18T01:04:10;101741.72;;;0.80;100.00
76108;BME280;64834;52.516;10.528;2023-11-18T01:06:36;101740.41;;;0.84;100.00
76108;BME280;64834;52.516;10.528;2023-11-18T01:09:01;101731.69;;;0.90;100.00
76108;BME280;64834;52.516;10.528;2023-11-18T01:11:26;101736.38;;;1.01;100.00
76108;BME280;64834;52.516;10.528;2023-11-18T01:13:52;101736.38;;;1.01;100.00
76108;BME280;64834;52.516;10.528;2023-11-18T01:16:19;101732.53;;;0.98;100.00
76108;BME280;64834;52.516;10.528;2023-11-18T01:18:45;101727.97;;;0.95;100.00
76108;BME280;64834;52.516;10.528;2023-11-18T01:21:11;101734.03;;;0.96;100.00
76108;BME280;64834;52.516;10.528;2023-11-18T01:23:37;101746.16;;;0.97;100.00
76108;BME280;64834;52.516;10.528;2023-11-18T01:26:04;101744.66;;;0.99;100.00
76108;BME280;64834;52.516;10.528;2023-11-18T01:28:36;101739.88;;;1.02;100.00
76108;BME280;64834;52.516;10.528;2023-11-18T01:31:05;101742.59;;;1.03;100.00
76108;BME280;64834;52.516;10.528;2023-11-18T01:33:37;101749.41;;;1.03;100.00
76108;BME280;64834;52.516;10.528;2023-11-18T01:36:07;101745.59;;;0.99;100.00
76108;BME280;64834;52.516;10.528;2023-11-18T01:38:39;101740.44;;;0.99;100.00
76108;BME280;64834;52.516;10.528;2023-11-18T01:41:05;101748.00;;;0.98;100.00
76108;BME280;64834;52.516;10.528;2023-11-18T01:43:30;101760.72;;;0.96;100.00
76108;BME280;64834;52.516;10.528;2023-11-18T01:45:59;101751.56;;;0.91;100.00
76108;BME280;64834;52.516;10.528;2023-11-18T01:48:27;101764.44;;;0.91;100.00
76108;BME280;64834;52.516;10.528;2023-11-18T01:50:55;101770.91;;;0.88;100.00
76108;BME280;64834;52.516;10.528;2023-11-18T01:53:21;101771.66;;;0.87;100.00
76108;BME280;64834;52.516;10.528;2023-11-18T01:55:47;101771.25;;;0.91;100.00
76108;BME280;64834;52.516;10.528;2023-11-18T01:58:14;101775.16;;;0.87;100.00
76108;BME280;64834;52.516;10.528;2023-11-18T02:00:45;101774.44;;;0.88;100.00
76108;BME280;64834;52.516;10.528;2023-11-18T02:03:12;101773.09;;;0.92;100.00
76108;BME280;64834;52.516;10.528;2023-11-18T02:05:37;101770.34;;;0.90;100.00
76108;BME280;64834;52.516;10.528;2023-11-18T02:08:04;101773.47;;;0.88;100.00
76108;BME280;64834;52.516;10.528;2023-11-18T02:10:31;101783.41;;;0.92;100.00
76108;BME280;64834;52.516;10.528;2023-11-18T02:13:33;101778.06;;;0.90;100.00
76108;BME280;64834;52.516;10.528;2023-11-18T02:16:02;101775.59;;;0.99;100.00
76108;BME280;64834;52.516;10.528;2023-11-18T02:18:29;101769.13;;;1.02;100.00
76108;BME280;64834;52.516;10.528;2023-11-18T02:20:55;101770.19;;;1.04;100.00
76108;BME280;64834;52.516;10.528;2023-11-18T02:23:24;101772.84;;;0.97;100.00
76108;BME280;64834;52.516;10.528;2023-11-18T02:25:51;101774.59;;;0.90;100.00
76108;BME280;64834;52.516;10.528;2023-11-18T02:28:18;101785.53;;;0.80;100.00
76108;BME280;64834;52.516;10.528;2023-11-18T02:30:44;101787.03;;;0.78;100.00
76108;BME280;64834;52.516;10.528;2023-11-18T02:33:23;101794.22;;;0.73;100.00
76108;BME280;64834;52.516;10.528;2023-11-18T02:36:00;101806.59;;;0.69;100.00
76108;BME280;64834;52.516;10.528;2023-11-18T02:38:35;101796.69;;;0.65;100.00
76108;BME280;64834;52.516;10.528;2023-11-18T02:41:09;101803.31;;;0.63;100.00
76108;BME280;64834;52.516;10.528;2023-11-18T02:43:36;101801.56;;;0.54;100.00
76108;BME280;64834;52.516;10.528;2023-11-18T02:46:03;101811.31;;;0.50;100.00
76108;BME280;64834;52.516;10.528;2023-11-18T02:48:30;101804.56;;;0.43;100.00
76108;BME280;64834;52.516;10.528;2023-11-18T02:50:58;101807.94;;;0.35;100.00
76108;BME280;64834;52.516;10.528;2023-11-18T02:53:24;101811.47;;;0.29;100.00
76108;BME280;64834;52.516;10.528;2023-11-18T02:55:49;101806.38;;;0.21;100.00
76108;BME280;64834;52.516;10.528;2023-11-18T02:58:17;101818.34;;;0.21;100.00
76108;BME280;64834;52.516;10.528;2023-11-18T03:00:42;101817.06;;;0.17;100.00
76108;BME280;64834;52.516;10.528;2023-11-18T03:03:10;101815.22;;;0.16;100.00
76108;BME280;64834;52.516;10.528;2023-11-18T03:05:36;101811.56;;;0.14;100.00
76108;BME280;64834;52.516;10.528;2023-11-18T03:08:02;101807.56;;;0.09;100.00
76108;BME280;64834;52.516;10.528;2023-11-18T03:10:31;101818.22;;;0.05;100.00
76108;BME280;64834;52.516;10.528;2023-11-18T03:12:58;101804.84;;;0.01;100.00
76108;BME280;64834;52.516;10.528;2023-11-18T03:15:23;101805.56;;;-0.01;100.00
76108;BME280;64834;52.516;10.528;2023-11-18T03:17:51;101806.84;;;0.03;100.00
76108;BME280;64834;52.516;10.528;2023-11-18T03:20:18;101801.88;;;0.05;100.00
76108;BME280;64834;52.516;10.528;2023-11-18T03:22:44;101805.19;;;0.04;100.00
76108;BME280;64834;52.516;10.528;2023-11-18T03:25:10;101812.03;;;-0.04;100.00
76108;BME280;64834;52.516;10.528;2023-11-18T03:27:36;101816.47;;;-0.10;100.00
76108;BME280;64834;52.516;10.528;2023-11-18T03:30:01;101814.69;;;-0.18;100.00
76108;BME280;64834;52.516;10.528;2023-11-18T03:32:26;101810.66;;;-0.23;100.00
76108;BME280;64834;52.516;10.528;2023-11-18T03:34:52;101820.25;;;-0.30;100.00
76108;BME280;64834;52.516;10.528;2023-11-18T03:37:17;101811.41;;;-0.32;100.00
76108;BME280;64834;52.516;10.528;2023-11-18T03:39:45;101813.97;;;-0.32;100.00
76108;BME280;64834;52.516;10.528;2023-11-18T03:42:10;101801.69;;;-0.34;100.00
76108;BME280;64834;52.516;10.528;2023-11-18T03:44:36;101797.25;;;-0.28;100.00
76108;BME280;64834;52.516;10.528;2023-11-18T03:47:02;101802.06;;;-0.31;100.00
76108;BME280;64834;52.516;10.528;2023-11-18T03:49:28;101799.50;;;-0.31;100.00
76108;BME280;64834;52.516;10.528;2023-11-18T03:51:53;101803.31;;;-0.28;100.00
76108;BME280;64834;52.516;10.528;2023-11-18T03:54:19;101811.03;;;-0.28;100.00
76108;BME280;64834;52.516;10.528;2023-11-18T03:56:45;101809.53;;;-0.25;100.00
76108;BME280;64834;52.516;10.528;2023-11-18T03:59:10;101798.88;;;-0.21;100.00
76108;BME280;64834;52.516;10.528;2023-11-18T04:01:36;101802.91;;;-0.16;100.00
76108;BME280;64834;52.516;10.528;2023-11-18T04:04:01;101796.47;;;-0.20;100.00
76108;BME280;64834;52.516;10.528;2023-11-18T04:06:26;101799.97;;;-0.19;100.00
76108;BME280;64834;52.516;10.528;2023-11-18T04:08:52;101797.63;;;-0.25;100.00
76108;BME280;64834;52.516;10.528;2023-11-18T04:11:17;101794.84;;;-0.27;100.00
76108;BME280;64834;52.516;10.528;2023-11-18T04:13:43;101805.56;;;-0.31;100.00
76108;BME280;64834;52.516;10.528;2023-11-18T04:16:15;101793.97;;;-0.34;100.00
76108;BME280;64834;52.516;10.528;2023-11-18T04:18:44;101798.56;;;-0.39;100.00
76108;BME280;64834;52.516;10.528;2023-11-18T04:21:11;101801.72;;;-0.41;100.00
76108;BME280;64834;52.516;10.528;2023-11-18T04:23:39;101801.56;;;-0.43;100.00
76108;BME280;64834;52.516;10.528;2023-11-18T04:26:05;101801.16;;;-0.39;100.00
76108;BME280;64834;52.516;10.528;2023-11-18T04:28:31;101797.13;;;-0.37;100.00
76108;BME280;64834;52.516;10.528;2023-11-18T04:30:56;101799.13;;;-0.34;100.00
76108;BME280;64834;52.516;10.528;2023-11-18T04:33:22;101789.22;;;-0.38;100.00
76108;BME280;64834;52.516;10.528;2023-11-18T04:35:47;101796.03;;;-0.46;100.00
76108;BME280;64834;52.516;10.528;2023-11-18T04:38:12;101799.56;;;-0.52;100.00
76108;BME280;64834;52.516;10.528;2023-11-18T04:40:38;101801.06;;;-0.62;100.00
76108;BME280;64834;52.516;10.528;2023-11-18T04:43:06;101810.41;;;-0.69;100.00
76108;BME280;64834;52.516;10.528;2023-11-18T04:45:31;101817.97;;;-0.71;100.00
76108;BME280;64834;52.516;10.528;2023-11-18T04:47:57;101818.88;;;-0.77;100.00
76108;BME280;64834;52.516;10.528;2023-11-18T04:50:22;101813.75;;;-0.77;100.00
76108;BME280;64834;52.516;10.528;2023-11-18T04:52:47;101811.56;;;-0.74;100.00
76108;BME280;64834;52.516;10.528;2023-11-18T04:55:13;101808.63;;;-0.77;100.00
76108;BME280;64834;52.516;10.528;2023-11-18T04:57:39;101799.25;;;-0.77;100.00
76108;BME280;64834;52.516;10.528;2023-11-18T05:00:05;101802.19;;;-0.74;100.00
76108;BME280;64834;52.516;10.528;2023-11-18T05:02:40;101788.44;;;-0.74;100.00
76108;BME280;64834;52.516;10.528;2023-11-18T05:05:05;101786.94;;;-0.72;100.00
76108;BME280;64834;52.516;10.528;2023-11-18T05:07:32;101780.34;;;-0.77;100.00
76108;BME280;64834;52.516;10.528;2023-11-18T05:09:57;101777.78;;;-0.77;100.00
76108;BME280;64834;52.516;10.528;2023-11-18T05:12:22;101794.28;;;-0.83;100.00
76108;BME280;64834;52.516;10.528;2023-11-18T05:14:48;101778.34;;;-0.80;100.00
76108;BME280;64834;52.516;10.528;2023-11-18T05:17:15;101788.06;;;-0.85;100.00
76108;BME280;64834;52.516;10.528;2023-11-18T05:19:41;101796.88;;;-0.90;100.00
76108;BME280;64834;52.516;10.528;2023-11-18T05:22:06;101788.84;;;-0.93;100.00
76108;BME280;64834;52.516;10.528;2023-11-18T05:24:31;101776.53;;;-0.95;100.00
76108;BME280;64834;52.516;10.528;2023-11-18T05:26:57;101776.91;;;-0.99;100.00
76108;BME280;64834;52.516;10.528;2023-11-18T05:29:30;101774.53;;;-0.98;100.00
76108;BME280;64834;52.516;10.528;2023-11-18T05:31:55;101769.72;;;-0.95;100.00
76108;BME280;64834;52.516;10.528;2023-11-18T05:34:21;101764.59;;;-0.95;100.00
76108;BME280;64834;52.516;10.528;2023-11-18T05:36:47;101751.22;;;-0.92;100.00
76108;BME280;64834;52.516;10.528;2023-11-18T05:39:14;101759.84;;;-0.99;100.00
76108;BME280;64834;52.516;10.528;2023-11-18T05:41:40;101756.38;;;-0.99;100.00
76108;BME280;64834;52.516;10.528;2023-11-18T05:44:06;101750.69;;;-1.04;100.00
76108;BME280;64834;52.516;10.528;2023-11-18T05:46:34;101758.00;;;-1.07;100.00
76108;BME280;64834;52.516;10.528;2023-11-18T05:49:03;101751.22;;;-1.14;100.00
76108;BME280;64834;52.516;10.528;2023-11-18T05:51:33;101757.69;;;-1.17;100.00
76108;BME280;64834;52.516;10.528;2023-11-18T05:53:58;101765.03;;;-1.13;100.00
76108;BME280;64834;52.516;10.528;2023-11-18T05:56:23;101765.72;;;-1.07;100.00
76108;BME280;64834;52.516;10.528;2023-11-18T05:58:50;101769.97;;;-1.00;100.00
76108;BME280;64834;52.516;10.528;2023-11-18T06:01:15;101774.69;;;-0.96;100.00
76108;BME280;64834;52.516;10.528;2023-11-18T06:03:42;101768.47;;;-0.98;100.00
76108;BME280;64834;52.516;10.528;2023-11-18T06:06:09;101775.59;;;-0.96;100.00
76108;BME280;64834;52.516;10.528;2023-11-18T06:08:38;101771.03;;;-0.91;100.00
76108;BME280;64834;52.516;10.528;2023-11-18T06:11:11;101759.44;;;-0.80;100.00
76108;BME280;64834;52.516;10.528;2023-11-18T06:13:41;101760.16;;;-0.74;100.00
76108;BME280;64834;52.516;10.528;2023-11-18T06:16:15;101759.41;;;-0.73;100.00
76108;BME280;64834;52.516;10.528;2023-11-18T06:18:44;101756.06;;;-0.58;100.00
76108;BME280;64834;52.516;10.528;2023-11-18T06:21:11;101754.38;;;-0.50;100.00
76108;BME280;64834;52.516;10.528;2023-11-18T06:23:37;101746.25;;;-0.39;100.00
76108;BME280;64834;52.516;10.528;2023-11-18T06:26:02;101746.81;;;-0.42;100.00
76108;BME280;64834;52.516;10.528;2023-11-18T06:28:29;101755.47;;;-0.48;100.00
76108;BME280;64834;52.516;10.528;2023-11-18T06:30:55;101768.63;;;-0.38;100.00
76108;BME280;64834;52.516;10.528;2023-11-18T06:33:20;101767.88;;;-0.30;100.00
76108;BME280;64834;52.516;10.528;2023-11-18T06:35:48;101764.94;;;-0.33;100.00
76108;BME280;64834;52.516;10.528;2023-11-18T06:38:13;101756.31;;;-0.34;100.00
76108;BME280;64834;52.516;10.528;2023-11-18T06:40:40;101747.81;;;-0.18;100.00
76108;BME280;64834;52.516;10.528;2023-11-18T06:43:05;101751.13;;;-0.27;100.00
76108;BME280;64834;52.516;10.528;2023-11-18T06:45:36;101754.28;;;-0.29;100.00
76108;BME280;64834;52.516;10.528;2023-11-18T06:48:03;101763.44;;;-0.24;100.00
76108;BME280;64834;52.516;10.528;2023-11-18T06:50:30;101758.81;;;-0.12;100.00
76108;BME280;64834;52.516;10.528;2023-11-18T06:52:59;101767.59;;;-0.10;100.00
76108;BME280;64834;52.516;10.528;2023-11-18T06:55:24;101768.34;;;-0.11;100.00
76108;BME280;64834;52.516;10.528;2023-11-18T06:57:51;101769.59;;;-0.08;100.00
76108;BME280;64834;52.516;10.528;2023-11-18T07:00:17;101769.78;;;-0.06;100.00
76108;BME280;64834;52.516;10.528;2023-11-18T07:02:43;101766.81;;;-0.02;100.00
76108;BME280;64834;52.516;10.528;2023-11-18T07:05:09;101768.69;;;-0.08;100.00
76108;BME280;64834;52.516;10.528;2023-11-18T07:07:34;101777.16;;;-0.09;100.00
76108;BME280;64834;52.516;10.528;2023-11-18T07:10:00;101797.16;;;-0.07;100.00
76108;BME280;64834;52.516;10.528;2023-11-18T07:12:25;101801.38;;;-0.07;100.00
76108;BME280;64834;52.516;10.528;2023-11-18T07:14:50;101803.03;;;-0.08;100.00
76108;BME280;64834;52.516;10.528;2023-11-18T07:17:16;101807.06;;;-0.03;100.00
76108;BME280;64834;52.516;10.528;2023-11-18T07:19:44;101799.88;;;0.02;100.00
76108;BME280;64834;52.516;10.528;2023-11-18T07:22:10;101794.91;;;0.04;100.00
76108;BME280;64834;52.516;10.528;2023-11-18T07:24:35;101810.13;;;0.09;100.00
76108;BME280;64834;52.516;10.528;2023-11-18T07:27:01;101800.69;;;0.17;100.00
76108;BME280;64834;52.516;10.528;2023-11-18T07:29:26;101801.22;;;0.21;100.00
76108;BME280;64834;52.516;10.528;2023-11-18T07:31:52;101802.25;;;0.31;100.00
76108;BME280;64834;52.516;10.528;2023-11-18T07:34:21;101809.28;;;0.32;100.00
76108;BME280;64834;52.516;10.528;2023-11-18T07:36:47;101795.06;;;0.35;100.00
76108;BME280;64834;52.516;10.528;2023-11-18T07:39:14;101801.81;;;0.42;100.00
76108;BME280;64834;52.516;10.528;2023-11-18T07:41:49;101812.94;;;0.57;100.00
76108;BME280;64834;52.516;10.528;2023-11-18T07:44:14;101800.53;;;0.68;100.00
76108;BME280;64834;52.516;10.528;2023-11-18T07:46:41;101800.00;;;0.87;100.00
76108;BME280;64834;52.516;10.528;2023-11-18T07:49:08;101804.53;;;0.96;100.00
76108;BME280;64834;52.516;10.528;2023-11-18T07:51:34;101796.56;;;1.02;100.00
76108;BME280;64834;52.516;10.528;2023-11-18T07:53:59;101795.75;;;1.10;100.00
76108;BME280;64834;52.516;10.528;2023-11-18T07:56:25;101801.28;;;1.06;100.00
76108;BME280;64834;52.516;10.528;2023-11-18T07:58:52;101808.63;;;1.10;100.00
76108;BME280;64834;52.516;10.528;2023-11-18T08:01:17;101808.31;;;1.07;100.00
76108;BME280;64834;52.516;10.528;2023-11-18T08:03:43;101821.34;;;1.08;100.00
76108;BME280;64834;52.516;10.528;2023-11-18T08:06:10;101814.47;;;1.16;100.00
76108;BME280;64834;52.516;10.528;2023-11-18T08:08:37;101804.81;;;1.22;100.00
76108;BME280;64834;52.516;10.528;2023-11-18T08:11:04;101808.25;;;1.30;100.00
76108;BME280;64834;52.516;10.528;2023-11-18T08:13:29;101817.03;;;1.32;100.00
76108;BME280;64834;52.516;10.528;2023-11-18T08:15:55;101820.91;;;1.35;100.00
76108;BME280;64834;52.516;10.528;2023-11-18T08:18:20;101818.72;;;1.31;100.00
76108;BME280;64834;52.516;10.528;2023-11-18T08:20:47;101823.38;;;1.27;100.00
76108;BME280;64834;52.516;10.528;2023-11-18T08:23:12;101824.13;;;1.26;100.00
76108;BME280;64834;52.516;10.528;2023-11-18T08:25:37;101812.63;;;1.31;100.00
76108;BME280;64834;52.516;10.528;2023-11-18T08:28:07;101818.72;;;1.31;100.00
76108;BME280;64834;52.516;10.528;2023-11-18T08:30:33;101813.06;;;1.27;100.00
76108;BME280;64834;52.516;10.528;2023-11-18T08:33:01;101815.13;;;1.38;100.00
76108;BME280;64834;52.516;10.528;2023-11-18T08:35:29;101809.03;;;1.45;100.00
76108;BME280;64834;52.516;10.528;2023-11-18T08:37:55;101802.59;;;1.57;100.00
76108;BME280;64834;52.516;10.528;2023-11-18T08:40:20;101798.03;;;1.70;100.00
76108;BME280;64834;52.516;10.528;2023-11-18T08:42:53;101778.78;;;1.75;100.00
76108;BME280;64834;52.516;10.528;2023-11-18T08:45:25;101779.19;;;1.87;100.00
76108;BME280;64834;52.516;10.528;2023-11-18T08:47:59;101776.69;;;1.96;100.00
76108;BME280;64834;52.516;10.528;2023-11-18T08:50:27;101782.97;;;2.06;100.00
76108;BME280;64834;52.516;10.528;2023-11-18T08:52:56;101782.88;;;2.13;100.00
76108;BME280;64834;52.516;10.528;2023-11-18T08:55:29;101786.44;;;2.23;100.00
76108;BME280;64834;52.516;10.528;2023-11-18T08:58:11;101797.06;;;2.26;100.00
76108;BME280;64834;52.516;10.528;2023-11-18T09:00:56;101779.19;;;2.27;100.00
76108;BME280;64834;52.516;10.528;2023-11-18T09:03:38;101783.63;;;2.37;100.00
76108;BME280;64834;52.516;10.528;2023-11-18T09:06:09;101779.88;;;2.42;100.00
76108;BME280;64834;52.516;10.528;2023-11-18T09:08:45;101793.66;;;2.58;100.00
76108;BME280;64834;52.516;10.528;2023-11-18T09:11:13;101786.69;;;2.66;100.00
76108;BME280;64834;52.516;10.528;2023-11-18T09:13:49;101789.66;;;2.78;100.00
76108;BME280;64834;52.516;10.528;2023-11-18T09:16:19;101778.44;;;2.94;100.00
76108;BME280;64834;52.516;10.528;2023-11-18T09:18:47;101784.44;;;3.11;100.00
76108;BME280;64834;52.516;10.528;2023-11-18T09:21:13;101784.44;;;3.19;100.00
76108;BME280;64834;52.516;10.528;2023-11-18T09:23:45;101796.53;;;3.36;100.00
76108;BME280;64834;52.516;10.528;2023-11-18T09:26:13;101793.97;;;3.54;100.00
76108;BME280;64834;52.516;10.528;2023-11-18T09:28:40;101791.09;;;3.68;100.00
76108;BME280;64834;52.516;10.528;2023-11-18T09:31:06;101784.41;;;3.78;100.00
76108;BME280;64834;52.516;10.528;2023-11-18T09:33:37;101781.38;;;3.91;100.00
76108;BME280;64834;52.516;10.528;2023-11-18T09:36:06;101773.72;;;4.01;100.00
76108;BME280;64834;52.516;10.528;2023-11-18T09:38:36;101770.81;;;4.07;100.00
76108;BME280;64834;52.516;10.528;2023-11-18T09:41:03;101768.84;;;4.13;100.00
76108;BME280;64834;52.516;10.528;2023-11-18T09:43:32;101768.53;;;4.19;100.00
76108;BME280;64834;52.516;10.528;2023-11-18T09:46:08;101772.78;;;4.27;100.00
76108;BME280;64834;52.516;10.528;2023-11-18T09:48:45;101773.53;;;4.26;100.00
76108;BME280;64834;52.516;10.528;2023-11-18T09:51:22;101769.88;;;4.41;100.00
76108;BME280;64834;52.516;10.528;2023-11-18T09:53:54;101758.84;;;4.52;100.00
76108;BME280;64834;52.516;10.528;2023-11-18T09:56:44;101758.69;;;4.59;100.00
76108;BME280;64834;52.516;10.528;2023-11-18T09:59:32;101751.13;;;4.71;100.00
76108;BME280;64834;52.516;10.528;2023-11-18T10:02:03;101751.13;;;4.80;100.00
76108;BME280;64834;52.516;10.528;2023-11-18T10:04:32;101752.31;;;4.83;100.00
76108;BME280;64834;52.516;10.528;2023-11-18T10:06:58;101750.31;;;4.90;100.00
76108;BME280;64834;52.516;10.528;2023-11-18T10:09:24;101741.41;;;4.96;100.00
76108;BME280;64834;52.516;10.528;2023-11-18T10:12:08;101754.31;;;5.13;100.00
76108;BME280;64834;52.516;10.528;2023-11-18T10:14:41;101741.91;;;5.20;100.00
76108;BME280;64834;52.516;10.528;2023-11-18T10:17:07;101757.06;;;5.34;100.00
76108;BME280;64834;52.516;10.528;2023-11-18T10:19:56;101758.38;;;5.48;100.00
76108;BME280;64834;52.516;10.528;2023-11-18T10:22:23;101764.88;;;5.53;100.00
76108;BME280;64834;52.516;10.528;2023-11-18T10:24:49;101755.28;;;5.71;100.00
76108;BME280;64834;52.516;10.528;2023-11-18T10:27:14;101745.66;;;5.88;100.00
76108;BME280;64834;52.516;10.528;2023-11-18T10:29:40;101741.63;;;6.01;100.00
76108;BME280;64834;52.516;10.528;2023-11-18T10:32:06;101738.31;;;6.12;100.00
76108;BME280;64834;52.516;10.528;2023-11-18T10:34:45;101736.69;;;6.22;100.00
76108;BME280;64834;52.516;10.528;2023-11-18T10:37:10;101725.88;;;6.28;100.00
76108;BME280;64834;52.516;10.528;2023-11-18T10:39:36;101712.63;;;6.25;100.00
76108;BME280;64834;52.516;10.528;2023-11-18T10:42:02;101706.78;;;6.28;100.00
76108;BME280;64834;52.516;10.528;2023-11-18T10:44:28;101709.00;;;6.33;100.00
76108;BME280;64834;52.516;10.528;2023-11-18T10:46:55;101700.91;;;6.49;100.00
76108;BME280;64834;52.516;10.528;2023-11-18T10:49:24;101705.59;;;6.63;99.47
76108;BME280;64834;52.516;10.528;2023-11-18T10:51:53;101693.88;;;6.58;98.03
76108;BME280;64834;52.516;10.528;2023-11-18T10:54:20;101695.31;;;6.65;98.28
76108;BME280;64834;52.516;10.528;2023-11-18T10:56:47;101699.75;;;6.56;97.54
76108;BME280;64834;52.516;10.528;2023-11-18T10:59:13;101699.75;;;6.56;96.96
76108;BME280;64834;52.516;10.528;2023-11-18T11:01:42;101689.34;;;6.56;97.17
76108;BME280;64834;52.516;10.528;2023-11-18T11:04:13;101692.59;;;6.63;96.63
76108;BME280;64834;52.516;10.528;2023-11-18T11:06:44;101688.19;;;6.72;95.97
76108;BME280;64834;52.516;10.528;2023-11-18T11:09:20;101681.19;;;6.82;95.72
76108;BME280;64834;52.516;10.528;2023-11-18T11:11:56;101682.50;;;6.97;96.03
76108;BME280;64834;52.516;10.528;2023-11-18T11:14:33;101679.13;;;7.18;95.33
76108;BME280;64834;52.516;10.528;2023-11-18T11:17:06;101663.38;;;7.17;93.36
76108;BME280;64834;52.516;10.528;2023-11-18T11:19:46;101675.22;;;7.13;92.42
76108;BME280;64834;52.516;10.528;2023-11-18T11:22:18;101672.09;;;7.17;93.49
76108;BME280;64834;52.516;10.528;2023-11-18T11:25:16;101658.66;;;7.43;93.30
76108;BME280;64834;52.516;10.528;2023-11-18T11:27:55;101656.06;;;7.33;92.03
76108;BME280;64834;52.516;10.528;2023-11-18T11:30:34;101653.75;;;7.36;92.23
76108;BME280;64834;52.516;10.528;2023-11-18T11:33:14;101643.44;;;7.38;92.78
76108;BME280;64834;52.516;10.528;2023-11-18T11:35:48;101640.78;;;7.48;93.43
76108;BME280;64834;52.516;10.528;2023-11-18T11:38:13;101636.53;;;7.48;91.88
76108;BME280;64834;52.516;10.528;2023-11-18T11:40:42;101629.63;;;7.49;90.67
76108;BME280;64834;52.516;10.528;2023-11-18T11:43:10;101632.34;;;7.50;91.38
76108;BME280;64834;52.516;10.528;2023-11-18T11:45:46;101628.84;;;7.50;90.75
76108;BME280;64834;52.516;10.528;2023-11-18T11:48:12;101635.59;;;7.48;90.24
76108;BME280;64834;52.516;10.528;2023-11-18T11:50:48;101632.00;;;7.25;89.94
76108;BME280;64834;52.516;10.528;2023-11-18T11:53:22;101627.31;;;7.21;91.01
76108;BME280;64834;52.516;10.528;2023-11-18T11:55:53;101621.47;;;7.14;90.29
76108;BME280;64834;52.516;10.528;2023-11-18T11:58:29;101628.63;;;7.16;91.33
76108;BME280;64834;52.516;10.528;2023-11-18T12:00:58;101621.19;;;7.21;90.83
76108;BME280;64834;52.516;10.528;2023-11-18T12:03:24;101632.66;;;7.23;90.12
76108;BME280;64834;52.516;10.528;2023-11-18T12:05:49;101627.94;;;7.29;89.25
76108;BME280;64834;52.516;10.528;2023-11-18T12:08:17;101619.00;;;7.25;89.17
76108;BME280;64834;52.516;10.528;2023-11-18T12:10:51;101608.56;;;7.25;89.88
76108;BME280;64834;52.516;10.528;2023-11-18T12:13:17;101596.47;;;7.26;89.50
76108;BME280;64834;52.516;10.528;2023-11-18T12:15:48;101577.34;;;7.15;89.17
76108;BME280;64834;52.516;10.528;2023-11-18T12:18:22;101578.16;;;7.04;90.07
76108;BME280;64834;52.516;10.528;2023-11-18T12:20:49;101566.19;;;7.06;90.08
76108;BME280;64834;52.516;10.528;2023-11-18T12:23:23;101566.41;;;7.09;90.57
76108;BME280;64834;52.516;10.528;2023-11-18T12:25:50;101560.06;;;7.06;90.49
76108;BME280;64834;52.516;10.528;2023-11-18T12:28:21;101556.00;;;7.09;90.29
76108;BME280;64834;52.516;10.528;2023-11-18T12:30:55;101563.19;;;7.01;90.63
76108;BME280;64834;52.516;10.528;2023-11-18T12:33:24;101572.03;;;7.03;90.72
76108;BME280;64834;52.516;10.528;2023-11-18T12:39:32;101556.84;;;6.98;91.71
76108;BME280;64834;52.516;10.528;2023-11-18T12:42:06;101555.78;;;6.96;92.73
76108;BME280;64834;52.516;10.528;2023-11-18T12:44:38;101568.28;;;6.90;93.88
76108;BME280;64834;52.516;10.528;2023-11-18T12:47:06;101558.13;;;6.83;94.07